Meteo Giornale » Osservazioni meteo Italia » Roma Fiumicino

ore: 01:50 - Osservazioni Meteo Roma Fiumicino
Lat. 41° 48' N Lon. 12° 14' E Alt. 2 metri s.l.m.

sereno Europe/Rome

22 °C

Sereno

Temp. 24 Ore

18 °C

28 °C

Sud-Est

7.4 Km/h

Dew point 21 °C

Umidità 94 %

Visibilità  8 Km

Il sole sorge alle ore 05:35

Il sole tramonta alle ore 20:51

Data e Ora Cielo e Fenomeni T °C DP °C Um. % Pres. hPa Vis. km Vento km/h
Oggi h: 01:50 sereno Sereno 22 21 94 1018 8 SE 7.4
Oggi h: 01:20 sereno Sereno 22 21 94 1018 9 N 3.7
Oggi h: 00:50 sereno Sereno 22 21 94 1018 8 N 3.7
Oggi h: 00:20 sereno Sereno 22 21 94 1018 10 N 5.5
Ieri h: 23:50 sereno Sereno 23 22 94 1018 10 N 0
Ieri h: 23:20 poco_nuvoloso Poco Nuvoloso 23 22 94 1018 10 N 0
Ieri h: 22:50 sereno Sereno 23 22 94 1018 10 N 3.7
Ieri h: 22:20 sereno Sereno 23 21 88 1019 10 N 1.8
Ieri h: 21:50 sereno Sereno 24 22 88 1018 10 N 5.5
Ieri h: 21:20 sereno Sereno 24 22 88 1018 10 O 7.4
Ieri h: 20:50 sereno Sereno 24 22 88 1018 10 O/SO 9.3
Ieri h: 20:20 sereno Sereno 25 21 78 1018 10 O/SO 9.3
Ieri h: 19:50 sereno Sereno 25 21 78 1018 10 O 11.1
Ieri h: 19:20 sereno Sereno 26 22 78 1018 10 O/SO 14.8
Ieri h: 18:50 sereno Sereno 26 21 73 1018 10 O/SO 14.8
Ieri h: 18:20 sereno Sereno 26 22 78 1018 10 O 16.7
Ieri h: 17:20 sereno Sereno 28 19 58 1018 10 O/SO 14.8
Ieri h: 16:50 sereno Sereno 28 18 54 1018 10 O/SO 16.7
Ieri h: 16:20 sereno Sereno 28 21 65 1018 10 N 16.7
Ieri h: 15:50 sereno Sereno 28 20 61 1018 10 O 18.5
Ieri h: 15:20 sereno Sereno 28 20 61 1018 10 O 18.5
Ieri h: 14:50 sereno Sereno 28 20 61 1019 10 O 18.5
Ieri h: 14:20 sereno Sereno 28 19 58 1019 10 O 16.7
Ieri h: 13:50 sereno Sereno 28 18 54 1019 10 O/SO 18.5
Ieri h: 13:20 sereno Sereno 28 20 61 1019 10 O 18.5
Ieri h: 12:50 sereno Sereno 28 21 65 1020 10 O 16.7
Ieri h: 12:20 sereno Sereno 27 21 69 1020 10 O 14.8
Ieri h: 11:50 sereno Sereno 27 20 65 1020 10 O 16.7
Ieri h: 11:20 sereno Sereno 27 20 65 1020 10 O 14.8
Ieri h: 10:50 sereno Sereno 26 20 69 1020 10 O 14.8
Ieri h: 10:20 sereno Sereno 26 21 73 1020 10 O/NO 13
Ieri h: 09:20 sereno Sereno 26 22 78 1019 10 O 11.1
Ieri h: 08:50 sereno Sereno 25 20 73 1019 10 N 5.5
Ieri h: 08:20 sereno Sereno 26 17 57 1019 10 N 0
Ieri h: 07:50 sereno Sereno 24 16 60 1019 10 N 3.7
Ieri h: 07:20 sereno Sereno 22 16 68 1019 10 N 1.8
Ieri h: 06:50 sereno Sereno 19 17 88 1019 10 N 3.7
Ieri h: 06:20 sereno Sereno 18 17 93 1018 10 N 3.7
Ieri h: 05:50 sereno Sereno 18 16 88 1018 10 N 1.8
Ieri h: 05:20 sereno Sereno 18 17 93 1018 10 N 3.7
Ieri h: 04:50 sereno Sereno 18 17 93 1018 10 N 3.7
Ieri h: 04:20 sereno Sereno 19 17 88 1018 10 N 1.8
Ieri h: 03:50 sereno Sereno 21 18 82 1018 10 N 0
Ieri h: 03:20 sereno Sereno 20 19 93 1019 10 N 3.7
Ieri h: 02:50 sereno Sereno 20 19 93 1018 10 N 5.5